sensor_id;sensor_type;location;lat;lon;timestamp;P1;durP1;ratioP1;P2;durP2;ratioP2
14778;SDS011;7481;53.750;10.570;2023-04-03T00:02:19;4.83;;;2.33;;
14778;SDS011;7481;53.750;10.570;2023-04-03T00:05:07;3.23;;;2.03;;
14778;SDS011;7481;53.750;10.570;2023-04-03T00:07:54;4.03;;;1.80;;
14778;SDS011;7481;53.750;10.570;2023-04-03T00:10:42;3.87;;;2.07;;
14778;SDS011;7481;53.750;10.570;2023-04-03T00:13:30;4.03;;;2.10;;
14778;SDS011;7481;53.750;10.570;2023-04-03T00:16:17;8.37;;;2.30;;
14778;SDS011;7481;53.750;10.570;2023-04-03T00:19:05;3.67;;;2.20;;
14778;SDS011;7481;53.750;10.570;2023-04-03T00:21:53;6.60;;;2.33;;
14778;SDS011;7481;53.750;10.570;2023-04-03T00:24:41;6.50;;;1.90;;
14778;SDS011;7481;53.750;10.570;2023-04-03T00:27:28;3.07;;;1.90;;
14778;SDS011;7481;53.750;10.570;2023-04-03T00:30:16;4.93;;;2.30;;
14778;SDS011;7481;53.750;10.570;2023-04-03T00:33:04;3.40;;;2.07;;
14778;SDS011;7481;53.750;10.570;2023-04-03T00:35:52;3.43;;;2.20;;
14778;SDS011;7481;53.750;10.570;2023-04-03T00:38:40;4.37;;;1.70;;
14778;SDS011;7481;53.750;10.570;2023-04-03T00:41:27;3.00;;;1.80;;
14778;SDS011;7481;53.750;10.570;2023-04-03T00:47:29;5.43;;;2.60;;
14778;SDS011;7481;53.750;10.570;2023-04-03T00:50:17;3.47;;;1.90;;
14778;SDS011;7481;53.750;10.570;2023-04-03T00:53:05;4.60;;;2.13;;
14778;SDS011;7481;53.750;10.570;2023-04-03T00:55:53;3.60;;;2.07;;
14778;SDS011;7481;53.750;10.570;2023-04-03T00:58:49;6.00;;;2.33;;
14778;SDS011;7481;53.750;10.570;2023-04-03T01:01:38;5.50;;;2.77;;
14778;SDS011;7481;53.750;10.570;2023-04-03T01:07:21;5.73;;;2.30;;
14778;SDS011;7481;53.750;10.570;2023-04-03T01:10:10;6.07;;;2.43;;
14778;SDS011;7481;53.750;10.570;2023-04-03T01:13:00;5.17;;;2.50;;
14778;SDS011;7481;53.750;10.570;2023-04-03T01:15:48;4.63;;;2.13;;
14778;SDS011;7481;53.750;10.570;2023-04-03T01:18:37;3.60;;;2.13;;
14778;SDS011;7481;53.750;10.570;2023-04-03T01:27:04;6.60;;;2.43;;
14778;SDS011;7481;53.750;10.570;2023-04-03T01:29:52;5.20;;;2.30;;
14778;SDS011;7481;53.750;10.570;2023-04-03T01:32:40;6.17;;;2.20;;
14778;SDS011;7481;53.750;10.570;2023-04-03T01:35:27;5.53;;;2.03;;
14778;SDS011;7481;53.750;10.570;2023-04-03T01:38:15;5.03;;;1.90;;
14778;SDS011;7481;53.750;10.570;2023-04-03T01:41:03;5.10;;;2.30;;
14778;SDS011;7481;53.750;10.570;2023-04-03T01:43:50;6.10;;;2.03;;
14778;SDS011;7481;53.750;10.570;2023-04-03T01:46:38;7.87;;;2.60;;
14778;SDS011;7481;53.750;10.570;2023-04-03T01:49:25;4.53;;;2.23;;
14778;SDS011;7481;53.750;10.570;2023-04-03T01:52:13;5.13;;;2.07;;
14778;SDS011;7481;53.750;10.570;2023-04-03T01:55:01;6.60;;;2.33;;
14778;SDS011;7481;53.750;10.570;2023-04-03T01:57:48;4.57;;;2.10;;
14778;SDS011;7481;53.750;10.570;2023-04-03T02:00:36;5.50;;;2.23;;
14778;SDS011;7481;53.750;10.570;2023-04-03T02:03:24;4.33;;;2.50;;
14778;SDS011;7481;53.750;10.570;2023-04-03T02:06:11;2.93;;;1.80;;
14778;SDS011;7481;53.750;10.570;2023-04-03T02:08:59;2.83;;;2.00;;
14778;SDS011;7481;53.750;10.570;2023-04-03T02:11:47;4.10;;;2.37;;
14778;SDS011;7481;53.750;10.570;2023-04-03T02:14:34;3.90;;;2.27;;
14778;SDS011;7481;53.750;10.570;2023-04-03T02:17:22;5.03;;;2.30;;
14778;SDS011;7481;53.750;10.570;2023-04-03T02:20:09;5.13;;;2.37;;
14778;SDS011;7481;53.750;10.570;2023-04-03T02:22:57;4.47;;;2.30;;
14778;SDS011;7481;53.750;10.570;2023-04-03T02:25:44;5.90;;;2.20;;
14778;SDS011;7481;53.750;10.570;2023-04-03T02:28:32;4.37;;;2.57;;
14778;SDS011;7481;53.750;10.570;2023-04-03T02:31:19;4.67;;;2.23;;
14778;SDS011;7481;53.750;10.570;2023-04-03T02:34:07;7.40;;;2.50;;
14778;SDS011;7481;53.750;10.570;2023-04-03T02:36:54;8.27;;;2.57;;
14778;SDS011;7481;53.750;10.570;2023-04-03T02:39:42;5.03;;;2.53;;
14778;SDS011;7481;53.750;10.570;2023-04-03T02:42:29;8.30;;;2.53;;
14778;SDS011;7481;53.750;10.570;2023-04-03T02:45:17;6.20;;;2.50;;
14778;SDS011;7481;53.750;10.570;2023-04-03T02:48:04;3.83;;;2.30;;
14778;SDS011;7481;53.750;10.570;2023-04-03T02:50:52;5.73;;;2.40;;
14778;SDS011;7481;53.750;10.570;2023-04-03T02:53:39;3.83;;;2.50;;
14778;SDS011;7481;53.750;10.570;2023-04-03T02:56:27;7.43;;;2.63;;
14778;SDS011;7481;53.750;10.570;2023-04-03T02:59:14;4.47;;;1.97;;
14778;SDS011;7481;53.750;10.570;2023-04-03T03:02:02;5.63;;;2.40;;
14778;SDS011;7481;53.750;10.570;2023-04-03T03:04:49;3.30;;;2.30;;
14778;SDS011;7481;53.750;10.570;2023-04-03T03:07:37;4.90;;;2.37;;
14778;SDS011;7481;53.750;10.570;2023-04-03T03:10:24;7.63;;;2.77;;
14778;SDS011;7481;53.750;10.570;2023-04-03T03:13:11;7.40;;;2.50;;
14778;SDS011;7481;53.750;10.570;2023-04-03T03:15:59;6.07;;;2.80;;
14778;SDS011;7481;53.750;10.570;2023-04-03T03:18:47;3.87;;;2.20;;
14778;SDS011;7481;53.750;10.570;2023-04-03T03:21:34;7.13;;;2.57;;
14778;SDS011;7481;53.750;10.570;2023-04-03T03:24:22;4.17;;;2.33;;
14778;SDS011;7481;53.750;10.570;2023-04-03T03:27:09;5.93;;;2.70;;
14778;SDS011;7481;53.750;10.570;2023-04-03T03:29:58;5.77;;;2.40;;
14778;SDS011;7481;53.750;10.570;2023-04-03T03:32:46;5.23;;;2.33;;
14778;SDS011;7481;53.750;10.570;2023-04-03T03:35:33;3.60;;;2.40;;
14778;SDS011;7481;53.750;10.570;2023-04-03T03:38:21;8.60;;;3.13;;
14778;SDS011;7481;53.750;10.570;2023-04-03T03:41:09;6.00;;;2.90;;
14778;SDS011;7481;53.750;10.570;2023-04-03T03:43:56;3.60;;;2.40;;
14778;SDS011;7481;53.750;10.570;2023-04-03T03:46:44;5.97;;;2.40;;
14778;SDS011;7481;53.750;10.570;2023-04-03T03:49:31;5.43;;;2.60;;
14778;SDS011;7481;53.750;10.570;2023-04-03T03:52:18;4.40;;;2.47;;
14778;SDS011;7481;53.750;10.570;2023-04-03T03:55:06;6.30;;;2.93;;
14778;SDS011;7481;53.750;10.570;2023-04-03T03:57:54;5.60;;;2.33;;
14778;SDS011;7481;53.750;10.570;2023-04-03T04:00:41;6.70;;;2.60;;
14778;SDS011;7481;53.750;10.570;2023-04-03T04:03:29;5.37;;;2.50;;
14778;SDS011;7481;53.750;10.570;2023-04-03T04:06:16;5.43;;;2.60;;
14778;SDS011;7481;53.750;10.570;2023-04-03T04:09:04;11.47;;;3.73;;
14778;SDS011;7481;53.750;10.570;2023-04-03T04:11:52;5.27;;;2.10;;
14778;SDS011;7481;53.750;10.570;2023-04-03T04:14:39;8.67;;;2.97;;
14778;SDS011;7481;53.750;10.570;2023-04-03T04:17:26;4.10;;;2.50;;
14778;SDS011;7481;53.750;10.570;2023-04-03T04:20:14;6.73;;;2.40;;
14778;SDS011;7481;53.750;10.570;2023-04-03T04:23:02;7.13;;;2.77;;
14778;SDS011;7481;53.750;10.570;2023-04-03T04:25:49;5.03;;;2.47;;
14778;SDS011;7481;53.750;10.570;2023-04-03T04:28:37;4.40;;;2.77;;
14778;SDS011;7481;53.750;10.570;2023-04-03T04:31:24;5.87;;;3.00;;
14778;SDS011;7481;53.750;10.570;2023-04-03T04:34:12;3.33;;;2.10;;
14778;SDS011;7481;53.750;10.570;2023-04-03T04:36:59;7.07;;;3.23;;
14778;SDS011;7481;53.750;10.570;2023-04-03T04:39:47;8.77;;;2.50;;
14778;SDS011;7481;53.750;10.570;2023-04-03T04:42:35;6.43;;;2.77;;
14778;SDS011;7481;53.750;10.570;2023-04-03T04:45:22;7.23;;;3.03;;
14778;SDS011;7481;53.750;10.570;2023-04-03T04:48:10;5.20;;;2.97;;
14778;SDS011;7481;53.750;10.570;2023-04-03T04:50:58;7.60;;;3.00;;
14778;SDS011;7481;53.750;10.570;2023-04-03T04:53:45;7.20;;;2.90;;
14778;SDS011;7481;53.750;10.570;2023-04-03T04:56:33;4.20;;;2.50;;
14778;SDS011;7481;53.750;10.570;2023-04-03T04:59:21;8.20;;;2.47;;
14778;SDS011;7481;53.750;10.570;2023-04-03T05:02:08;4.43;;;2.50;;
14778;SDS011;7481;53.750;10.570;2023-04-03T05:04:56;7.57;;;2.40;;
14778;SDS011;7481;53.750;10.570;2023-04-03T05:07:44;6.47;;;2.70;;
14778;SDS011;7481;53.750;10.570;2023-04-03T05:10:31;7.60;;;3.03;;
14778;SDS011;7481;53.750;10.570;2023-04-03T05:13:19;5.03;;;2.73;;
14778;SDS011;7481;53.750;10.570;2023-04-03T05:16:06;5.60;;;3.10;;
14778;SDS011;7481;53.750;10.570;2023-04-03T05:18:54;7.50;;;3.03;;
14778;SDS011;7481;53.750;10.570;2023-04-03T05:21:42;10.97;;;2.80;;
14778;SDS011;7481;53.750;10.570;2023-04-03T05:24:29;7.77;;;2.73;;
14778;SDS011;7481;53.750;10.570;2023-04-03T05:27:17;7.57;;;2.57;;
14778;SDS011;7481;53.750;10.570;2023-04-03T05:30:04;6.30;;;2.70;;
14778;SDS011;7481;53.750;10.570;2023-04-03T05:32:52;5.90;;;2.90;;
14778;SDS011;7481;53.750;10.570;2023-04-03T05:35:39;3.77;;;2.20;;
14778;SDS011;7481;53.750;10.570;2023-04-03T05:38:28;7.03;;;3.93;;
14778;SDS011;7481;53.750;10.570;2023-04-03T05:41:16;3.33;;;2.40;;
14778;SDS011;7481;53.750;10.570;2023-04-03T05:44:04;8.00;;;2.43;;
14778;SDS011;7481;53.750;10.570;2023-04-03T05:46:51;5.50;;;2.40;;
14778;SDS011;7481;53.750;10.570;2023-04-03T05:49:40;4.33;;;2.20;;
14778;SDS011;7481;53.750;10.570;2023-04-03T05:52:31;4.30;;;2.30;;
14778;SDS011;7481;53.750;10.570;2023-04-03T05:55:20;4.83;;;2.40;;
14778;SDS011;7481;53.750;10.570;2023-04-03T05:58:07;8.07;;;2.67;;
14778;SDS011;7481;53.750;10.570;2023-04-03T06:00:57;6.37;;;2.67;;
14778;SDS011;7481;53.750;10.570;2023-04-03T06:03:44;9.63;;;2.70;;
14778;SDS011;7481;53.750;10.570;2023-04-03T06:07:16;3.07;;;2.17;;
14778;SDS011;7481;53.750;10.570;2023-04-03T06:09:43;8.33;;;2.10;;
14778;SDS011;7481;53.750;10.570;2023-04-03T06:12:31;4.63;;;2.07;;
14778;SDS011;7481;53.750;10.570;2023-04-03T06:15:18;5.17;;;2.20;;
14778;SDS011;7481;53.750;10.570;2023-04-03T06:18:06;5.97;;;2.47;;
14778;SDS011;7481;53.750;10.570;2023-04-03T06:20:54;4.83;;;2.70;;
14778;SDS011;7481;53.750;10.570;2023-04-03T06:23:42;3.83;;;2.10;;
14778;SDS011;7481;53.750;10.570;2023-04-03T06:26:29;3.50;;;2.30;;
14778;SDS011;7481;53.750;10.570;2023-04-03T06:29:17;3.27;;;1.93;;
14778;SDS011;7481;53.750;10.570;2023-04-03T06:32:04;4.40;;;2.37;;
14778;SDS011;7481;53.750;10.570;2023-04-03T06:34:52;4.67;;;2.07;;
14778;SDS011;7481;53.750;10.570;2023-04-03T06:37:40;2.97;;;2.03;;
14778;SDS011;7481;53.750;10.570;2023-04-03T06:40:27;6.90;;;2.50;;
14778;SDS011;7481;53.750;10.570;2023-04-03T06:43:15;2.90;;;2.20;;
14778;SDS011;7481;53.750;10.570;2023-04-03T06:46:02;5.63;;;2.37;;
14778;SDS011;7481;53.750;10.570;2023-04-03T06:48:50;4.87;;;2.27;;
14778;SDS011;7481;53.750;10.570;2023-04-03T06:51:38;5.83;;;2.57;;
14778;SDS011;7481;53.750;10.570;2023-04-03T06:54:26;3.73;;;2.27;;
14778;SDS011;7481;53.750;10.570;2023-04-03T06:57:13;6.07;;;2.50;;
14778;SDS011;7481;53.750;10.570;2023-04-03T07:00:02;5.63;;;2.43;;
14778;SDS011;7481;53.750;10.570;2023-04-03T07:02:50;4.70;;;2.40;;
14778;SDS011;7481;53.750;10.570;2023-04-03T07:05:38;5.73;;;2.60;;
14778;SDS011;7481;53.750;10.570;2023-04-03T07:08:26;4.57;;;2.23;;
14778;SDS011;7481;53.750;10.570;2023-04-03T07:11:15;3.60;;;1.90;;
14778;SDS011;7481;53.750;10.570;2023-04-03T07:14:03;5.00;;;2.70;;
14778;SDS011;7481;53.750;10.570;2023-04-03T07:16:51;6.50;;;2.27;;
14778;SDS011;7481;53.750;10.570;2023-04-03T07:19:38;4.90;;;2.30;;
14778;SDS011;7481;53.750;10.570;2023-04-03T07:22:26;5.47;;;1.83;;
14778;SDS011;7481;53.750;10.570;2023-04-03T07:25:14;17.10;;;2.37;;
14778;SDS011;7481;53.750;10.570;2023-04-03T07:28:03;7.00;;;2.30;;
14778;SDS011;7481;53.750;10.570;2023-04-03T07:30:54;5.70;;;2.20;;
14778;SDS011;7481;53.750;10.570;2023-04-03T07:33:46;4.17;;;2.10;;
14778;SDS011;7481;53.750;10.570;2023-04-03T07:36:33;4.13;;;2.00;;
14778;SDS011;7481;53.750;10.570;2023-04-03T07:39:23;5.90;;;2.17;;
14778;SDS011;7481;53.750;10.570;2023-04-03T07:42:10;3.13;;;2.07;;
14778;SDS011;7481;53.750;10.570;2023-04-03T07:44:59;3.57;;;2.40;;
14778;SDS011;7481;53.750;10.570;2023-04-03T07:47:46;4.67;;;2.50;;
14778;SDS011;7481;53.750;10.570;2023-04-03T07:50:34;4.13;;;2.10;;
14778;SDS011;7481;53.750;10.570;2023-04-03T07:53:22;4.60;;;2.40;;
14778;SDS011;7481;53.750;10.570;2023-04-03T07:56:10;4.93;;;2.45;;
14778;SDS011;7481;53.750;10.570;2023-04-03T07:58:57;5.03;;;2.10;;
14778;SDS011;7481;53.750;10.570;2023-04-03T08:01:45;3.28;;;1.90;;
14778;SDS011;7481;53.750;10.570;2023-04-03T08:04:32;5.43;;;2.47;;
14778;SDS011;7481;53.750;10.570;2023-04-03T08:07:20;5.80;;;2.47;;
14778;SDS011;7481;53.750;10.570;2023-04-03T08:10:08;2.80;;;1.80;;
14778;SDS011;7481;53.750;10.570;2023-04-03T08:12:55;6.23;;;2.33;;
14778;SDS011;7481;53.750;10.570;2023-04-03T08:15:43;12.30;;;2.13;;
14778;SDS011;7481;53.750;10.570;2023-04-03T08:18:30;2.80;;;1.60;;
14778;SDS011;7481;53.750;10.570;2023-04-03T08:21:18;2.77;;;1.50;;
14778;SDS011;7481;53.750;10.570;2023-04-03T08:24:05;4.35;;;1.88;;
14778;SDS011;7481;53.750;10.570;2023-04-03T08:26:53;2.97;;;1.60;;
14778;SDS011;7481;53.750;10.570;2023-04-03T08:29:41;2.57;;;1.37;;
14778;SDS011;7481;53.750;10.570;2023-04-03T08:32:28;5.07;;;1.40;;
14778;SDS011;7481;53.750;10.570;2023-04-03T08:35:16;2.17;;;1.43;;
14778;SDS011;7481;53.750;10.570;2023-04-03T08:38:04;3.60;;;1.40;;
14778;SDS011;7481;53.750;10.570;2023-04-03T08:41:02;2.87;;;1.40;;
14778;SDS011;7481;53.750;10.570;2023-04-03T08:49:37;3.73;;;1.87;;
14778;SDS011;7481;53.750;10.570;2023-04-03T08:55:24;2.27;;;1.43;;
14778;SDS011;7481;53.750;10.570;2023-04-03T08:58:23;2.10;;;1.50;;
14778;SDS011;7481;53.750;10.570;2023-04-03T09:01:20;3.03;;;1.50;;
14778;SDS011;7481;53.750;10.570;2023-04-03T09:04:12;2.37;;;1.30;;
14778;SDS011;7481;53.750;10.570;2023-04-03T09:07:03;2.93;;;1.40;;
14778;SDS011;7481;53.750;10.570;2023-04-03T09:09:52;4.70;;;1.80;;
14778;SDS011;7481;53.750;10.570;2023-04-03T09:12:41;3.73;;;1.53;;
14778;SDS011;7481;53.750;10.570;2023-04-03T09:15:30;2.97;;;1.50;;
14778;SDS011;7481;53.750;10.570;2023-04-03T09:18:32;2.87;;;1.50;;
14778;SDS011;7481;53.750;10.570;2023-04-03T09:21:34;6.50;;;1.70;;
14778;SDS011;7481;53.750;10.570;2023-04-03T09:24:24;4.00;;;1.50;;
14778;SDS011;7481;53.750;10.570;2023-04-03T09:27:11;5.73;;;1.60;;
14778;SDS011;7481;53.750;10.570;2023-04-03T09:29:59;2.43;;;1.20;;
14778;SDS011;7481;53.750;10.570;2023-04-03T09:32:49;3.73;;;1.20;;
14778;SDS011;7481;53.750;10.570;2023-04-03T09:35:37;2.00;;;1.20;;
14778;SDS011;7481;53.750;10.570;2023-04-03T09:38:33;1.63;;;1.10;;
14778;SDS011;7481;53.750;10.570;2023-04-03T09:41:22;2.50;;;1.20;;
14778;SDS011;7481;53.750;10.570;2023-04-03T09:44:21;3.83;;;1.27;;
14778;SDS011;7481;53.750;10.570;2023-04-03T09:47:19;1.40;;;1.10;;
14778;SDS011;7481;53.750;10.570;2023-04-03T09:53:05;3.70;;;1.77;;
14778;SDS011;7481;53.750;10.570;2023-04-03T09:55:53;2.70;;;1.27;;
14778;SDS011;7481;53.750;10.570;2023-04-03T09:58:41;4.67;;;1.27;;
14778;SDS011;7481;53.750;10.570;2023-04-03T10:01:37;2.53;;;1.60;;
14778;SDS011;7481;53.750;10.570;2023-04-03T10:04:25;2.90;;;1.33;;
14778;SDS011;7481;53.750;10.570;2023-04-03T10:07:26;4.80;;;1.50;;
14778;SDS011;7481;53.750;10.570;2023-04-03T10:10:21;2.43;;;1.20;;
14778;SDS011;7481;53.750;10.570;2023-04-03T10:13:12;2.07;;;1.50;;
14778;SDS011;7481;53.750;10.570;2023-04-03T10:16:08;4.07;;;1.30;;
14778;SDS011;7481;53.750;10.570;2023-04-03T10:18:59;1.60;;;1.03;;
14778;SDS011;7481;53.750;10.570;2023-04-03T10:21:59;3.47;;;1.27;;
14778;SDS011;7481;53.750;10.570;2023-04-03T10:28:01;2.23;;;1.10;;
14778;SDS011;7481;53.750;10.570;2023-04-03T10:33:52;4.67;;;1.23;;
14778;SDS011;7481;53.750;10.570;2023-04-03T10:45:23;2.97;;;1.30;;
14778;SDS011;7481;53.750;10.570;2023-04-03T10:48:23;7.60;;;1.70;;
14778;SDS011;7481;53.750;10.570;2023-04-03T10:51:29;5.77;;;1.33;;
14778;SDS011;7481;53.750;10.570;2023-04-03T10:54:24;4.10;;;1.37;;
14778;SDS011;7481;53.750;10.570;2023-04-03T10:57:12;5.30;;;1.63;;
14778;SDS011;7481;53.750;10.570;2023-04-03T11:00:04;3.27;;;1.23;;
14778;SDS011;7481;53.750;10.570;2023-04-03T11:05:44;2.23;;;1.43;;
14778;SDS011;7481;53.750;10.570;2023-04-03T11:08:37;6.40;;;1.63;;
14778;SDS011;7481;53.750;10.570;2023-04-03T11:11:30;3.50;;;1.30;;
14778;SDS011;7481;53.750;10.570;2023-04-03T11:14:24;2.87;;;1.17;;
14778;SDS011;7481;53.750;10.570;2023-04-03T11:20:18;3.93;;;1.40;;
14778;SDS011;7481;53.750;10.570;2023-04-03T11:23:19;2.77;;;1.30;;
14778;SDS011;7481;53.750;10.570;2023-04-03T11:26:16;4.60;;;1.40;;
14778;SDS011;7481;53.750;10.570;2023-04-03T11:29:07;1.97;;;1.10;;
14778;SDS011;7481;53.750;10.570;2023-04-03T11:35:09;3.07;;;1.03;;
14778;SDS011;7481;53.750;10.570;2023-04-03T11:37:58;4.20;;;1.30;;
14778;SDS011;7481;53.750;10.570;2023-04-03T11:40:47;4.00;;;1.33;;
14778;SDS011;7481;53.750;10.570;2023-04-03T11:43:39;6.27;;;1.70;;
14778;SDS011;7481;53.750;10.570;2023-04-03T11:50:01;1.07;;;0.80;;
14778;SDS011;7481;53.750;10.570;2023-04-03T11:55:45;3.90;;;1.40;;
14778;SDS011;7481;53.750;10.570;2023-04-03T11:58:33;2.20;;;1.40;;
14778;SDS011;7481;53.750;10.570;2023-04-03T12:01:42;5.83;;;1.03;;
14778;SDS011;7481;53.750;10.570;2023-04-03T12:04:29;3.23;;;1.27;;
14778;SDS011;7481;53.750;10.570;2023-04-03T12:07:18;3.23;;;1.17;;
14778;SDS011;7481;53.750;10.570;2023-04-03T12:10:14;3.40;;;1.00;;
14778;SDS011;7481;53.750;10.570;2023-04-03T12:13:17;3.43;;;1.20;;
14778;SDS011;7481;53.750;10.570;2023-04-03T12:16:06;3.63;;;1.03;;
14778;SDS011;7481;53.750;10.570;2023-04-03T12:24:50;2.60;;;1.30;;
14778;SDS011;7481;53.750;10.570;2023-04-03T12:27:40;2.83;;;1.60;;
14778;SDS011;7481;53.750;10.570;2023-04-03T12:30:29;1.93;;;1.20;;
14778;SDS011;7481;53.750;10.570;2023-04-03T12:36:13;4.50;;;1.40;;
14778;SDS011;7481;53.750;10.570;2023-04-03T12:42:16;4.00;;;1.27;;
14778;SDS011;7481;53.750;10.570;2023-04-03T12:45:10;1.57;;;1.10;;
14778;SDS011;7481;53.750;10.570;2023-04-03T12:48:00;3.23;;;1.13;;
14778;SDS011;7481;53.750;10.570;2023-04-03T12:50:49;2.30;;;1.40;;
14778;SDS011;7481;53.750;10.570;2023-04-03T12:53:37;2.00;;;0.90;;
14778;SDS011;7481;53.750;10.570;2023-04-03T12:56:26;4.33;;;1.17;;
14778;SDS011;7481;53.750;10.570;2023-04-03T13:02:09;2.47;;;1.10;;
14778;SDS011;7481;53.750;10.570;2023-04-03T13:04:58;11.50;;;1.33;;
14778;SDS011;7481;53.750;10.570;2023-04-03T13:07:52;2.47;;;1.33;;
14778;SDS011;7481;53.750;10.570;2023-04-03T13:10:47;1.03;;;0.97;;
14778;SDS011;7481;53.750;10.570;2023-04-03T13:13:36;4.03;;;1.30;;
14778;SDS011;7481;53.750;10.570;2023-04-03T13:16:25;2.00;;;1.07;;
14778;SDS011;7481;53.750;10.570;2023-04-03T13:19:16;5.13;;;1.10;;
14778;SDS011;7481;53.750;10.570;2023-04-03T13:22:05;1.90;;;1.10;;
14778;SDS011;7481;53.750;10.570;2023-04-03T13:24:54;4.87;;;1.40;;
14778;SDS011;7481;53.750;10.570;2023-04-03T13:27:42;2.50;;;1.30;;
14778;SDS011;7481;53.750;10.570;2023-04-03T13:30:36;5.70;;;1.33;;
14778;SDS011;7481;53.750;10.570;2023-04-03T13:33:26;4.67;;;1.20;;
14778;SDS011;7481;53.750;10.570;2023-04-03T13:36:21;3.00;;;1.50;;
14778;SDS011;7481;53.750;10.570;2023-04-03T13:41:58;2.67;;;1.27;;
14778;SDS011;7481;53.750;10.570;2023-04-03T13:44:48;2.10;;;1.37;;
14778;SDS011;7481;53.750;10.570;2023-04-03T13:47:39;1.93;;;1.40;;
14778;SDS011;7481;53.750;10.570;2023-04-03T13:50:28;6.87;;;1.70;;
14778;SDS011;7481;53.750;10.570;2023-04-03T13:53:15;3.60;;;1.30;;
14778;SDS011;7481;53.750;10.570;2023-04-03T14:04:52;2.97;;;1.20;;
14778;SDS011;7481;53.750;10.570;2023-04-03T14:07:43;2.73;;;1.60;;
14778;SDS011;7481;53.750;10.570;2023-04-03T14:10:32;3.73;;;2.13;;
14778;SDS011;7481;53.750;10.570;2023-04-03T14:13:20;4.00;;;1.67;;
14778;SDS011;7481;53.750;10.570;2023-04-03T14:16:11;3.57;;;1.50;;
14778;SDS011;7481;53.750;10.570;2023-04-03T14:19:02;4.10;;;1.77;;
14778;SDS011;7481;53.750;10.570;2023-04-03T14:21:49;5.20;;;1.47;;
14778;SDS011;7481;53.750;10.570;2023-04-03T14:24:37;3.30;;;1.60;;
14778;SDS011;7481;53.750;10.570;2023-04-03T14:27:27;2.83;;;1.70;;
14778;SDS011;7481;53.750;10.570;2023-04-03T14:30:19;1.90;;;1.40;;
14778;SDS011;7481;53.750;10.570;2023-04-03T14:33:09;5.20;;;1.87;;
14778;SDS011;7481;53.750;10.570;2023-04-03T14:35:57;3.87;;;1.70;;
14778;SDS011;7481;53.750;10.570;2023-04-03T14:38:45;5.43;;;1.60;;
14778;SDS011;7481;53.750;10.570;2023-04-03T14:41:32;3.17;;;1.70;;
14778;SDS011;7481;53.750;10.570;2023-04-03T14:44:20;3.27;;;1.27;;
14778;SDS011;7481;53.750;10.570;2023-04-03T14:47:13;4.65;;;1.73;;
14778;SDS011;7481;53.750;10.570;2023-04-03T14:50:17;4.82;;;1.77;;
14778;SDS011;7481;53.750;10.570;2023-04-03T14:53:07;4.40;;;2.00;;
14778;SDS011;7481;53.750;10.570;2023-04-03T14:55:55;5.20;;;1.50;;
14778;SDS011;7481;53.750;10.570;2023-04-03T14:58:43;2.30;;;1.43;;
14778;SDS011;7481;53.750;10.570;2023-04-03T15:01:31;2.23;;;1.43;;
14778;SDS011;7481;53.750;10.570;2023-04-03T15:04:19;3.77;;;1.80;;
14778;SDS011;7481;53.750;10.570;2023-04-03T15:07:07;2.30;;;1.43;;
14778;SDS011;7481;53.750;10.570;2023-04-03T15:09:55;3.13;;;1.40;;
14778;SDS011;7481;53.750;10.570;2023-04-03T15:12:43;2.67;;;1.47;;
14778;SDS011;7481;53.750;10.570;2023-04-03T15:15:38;3.77;;;1.77;;
14778;SDS011;7481;53.750;10.570;2023-04-03T15:18:26;4.77;;;1.80;;
14778;SDS011;7481;53.750;10.570;2023-04-03T15:21:16;4.23;;;1.70;;
14778;SDS011;7481;53.750;10.570;2023-04-03T15:24:04;3.10;;;2.07;;
14778;SDS011;7481;53.750;10.570;2023-04-03T15:26:51;2.67;;;1.50;;
14778;SDS011;7481;53.750;10.570;2023-04-03T15:29:39;5.33;;;1.43;;
14778;SDS011;7481;53.750;10.570;2023-04-03T15:32:27;3.17;;;1.43;;
14778;SDS011;7481;53.750;10.570;2023-04-03T15:35:18;3.07;;;1.60;;
14778;SDS011;7481;53.750;10.570;2023-04-03T15:38:05;2.77;;;1.37;;
14778;SDS011;7481;53.750;10.570;2023-04-03T15:40:54;4.87;;;1.50;;
14778;SDS011;7481;53.750;10.570;2023-04-03T15:43:41;2.70;;;1.50;;
14778;SDS011;7481;53.750;10.570;2023-04-03T15:46:29;3.40;;;1.50;;
14778;SDS011;7481;53.750;10.570;2023-04-03T15:49:17;2.40;;;1.50;;
14778;SDS011;7481;53.750;10.570;2023-04-03T15:52:05;2.87;;;1.70;;
14778;SDS011;7481;53.750;10.570;2023-04-03T15:54:52;1.63;;;1.20;;
14778;SDS011;7481;53.750;10.570;2023-04-03T15:57:40;4.10;;;1.70;;
14778;SDS011;7481;53.750;10.570;2023-04-03T16:00:28;2.63;;;1.60;;
14778;SDS011;7481;53.750;10.570;2023-04-03T16:03:16;3.00;;;1.40;;
14778;SDS011;7481;53.750;10.570;2023-04-03T16:06:04;2.50;;;1.73;;
14778;SDS011;7481;53.750;10.570;2023-04-03T16:08:51;4.43;;;1.53;;
14778;SDS011;7481;53.750;10.570;2023-04-03T16:11:43;4.87;;;1.73;;
14778;SDS011;7481;53.750;10.570;2023-04-03T16:14:31;5.07;;;1.57;;
14778;SDS011;7481;53.750;10.570;2023-04-03T16:17:19;3.83;;;1.80;;
14778;SDS011;7481;53.750;10.570;2023-04-03T16:20:07;3.23;;;1.80;;
14778;SDS011;7481;53.750;10.570;2023-04-03T16:22:55;6.57;;;2.00;;
14778;SDS011;7481;53.750;10.570;2023-04-03T16:25:43;2.27;;;1.50;;
14778;SDS011;7481;53.750;10.570;2023-04-03T16:28:33;3.37;;;1.70;;
14778;SDS011;7481;53.750;10.570;2023-04-03T16:31:21;3.60;;;1.50;;
14778;SDS011;7481;53.750;10.570;2023-04-03T16:34:09;3.50;;;1.80;;
14778;SDS011;7481;53.750;10.570;2023-04-03T16:36:56;5.00;;;1.60;;
14778;SDS011;7481;53.750;10.570;2023-04-03T16:39:44;3.60;;;1.50;;
14778;SDS011;7481;53.750;10.570;2023-04-03T16:42:31;3.53;;;1.70;;
14778;SDS011;7481;53.750;10.570;2023-04-03T16:45:21;2.93;;;1.90;;
14778;SDS011;7481;53.750;10.570;2023-04-03T16:48:09;2.60;;;2.10;;
14778;SDS011;7481;53.750;10.570;2023-04-03T16:50:57;2.47;;;1.50;;
14778;SDS011;7481;53.750;10.570;2023-04-03T16:53:44;2.13;;;1.53;;
14778;SDS011;7481;53.750;10.570;2023-04-03T16:56:32;5.07;;;1.60;;
14778;SDS011;7481;53.750;10.570;2023-04-03T16:59:19;1.80;;;1.40;;
14778;SDS011;7481;53.750;10.570;2023-04-03T17:02:07;3.57;;;1.60;;
14778;SDS011;7481;53.750;10.570;2023-04-03T17:04:55;3.67;;;1.70;;
14778;SDS011;7481;53.750;10.570;2023-04-03T17:07:42;3.47;;;1.70;;
14778;SDS011;7481;53.750;10.570;2023-04-03T17:10:29;2.53;;;1.63;;
14778;SDS011;7481;53.750;10.570;2023-04-03T17:13:17;5.37;;;1.67;;
14778;SDS011;7481;53.750;10.570;2023-04-03T17:16:05;3.90;;;1.70;;
14778;SDS011;7481;53.750;10.570;2023-04-03T17:18:53;3.43;;;1.57;;
14778;SDS011;7481;53.750;10.570;2023-04-03T17:21:41;4.67;;;1.40;;
14778;SDS011;7481;53.750;10.570;2023-04-03T17:24:28;2.73;;;1.57;;
14778;SDS011;7481;53.750;10.570;2023-04-03T17:27:16;4.73;;;1.70;;
14778;SDS011;7481;53.750;10.570;2023-04-03T17:30:04;5.00;;;1.70;;
14778;SDS011;7481;53.750;10.570;2023-04-03T17:32:52;5.00;;;1.70;;
14778;SDS011;7481;53.750;10.570;2023-04-03T17:35:39;4.83;;;1.83;;
14778;SDS011;7481;53.750;10.570;2023-04-03T17:38:27;4.83;;;2.00;;
14778;SDS011;7481;53.750;10.570;2023-04-03T17:41:14;3.73;;;1.87;;
14778;SDS011;7481;53.750;10.570;2023-04-03T17:44:02;4.85;;;2.30;;
14778;SDS011;7481;53.750;10.570;2023-04-03T17:46:50;3.58;;;2.05;;
14778;SDS011;7481;53.750;10.570;2023-04-03T17:49:37;5.27;;;1.70;;
14778;SDS011;7481;53.750;10.570;2023-04-03T17:52:25;3.07;;;2.30;;
14778;SDS011;7481;53.750;10.570;2023-04-03T17:55:13;2.87;;;1.73;;
14778;SDS011;7481;53.750;10.570;2023-04-03T17:58:03;6.10;;;1.77;;
14778;SDS011;7481;53.750;10.570;2023-04-03T18:00:50;6.20;;;2.10;;
14778;SDS011;7481;53.750;10.570;2023-04-03T18:03:39;3.97;;;1.90;;
14778;SDS011;7481;53.750;10.570;2023-04-03T18:06:29;3.83;;;2.00;;
14778;SDS011;7481;53.750;10.570;2023-04-03T18:09:17;4.50;;;1.77;;
14778;SDS011;7481;53.750;10.570;2023-04-03T18:12:06;3.60;;;1.63;;
14778;SDS011;7481;53.750;10.570;2023-04-03T18:14:53;3.07;;;1.70;;
14778;SDS011;7481;53.750;10.570;2023-04-03T18:17:41;3.30;;;1.70;;
14778;SDS011;7481;53.750;10.570;2023-04-03T18:20:28;5.23;;;1.90;;